createdAt,value
2018-01-15T00:00:59.564Z,0.31
2018-01-15T00:02:02.957Z,0.27
2018-01-15T00:03:05.877Z,0.23
2018-01-15T00:04:08.866Z,0.26
2018-01-15T00:05:11.829Z,0.24
2018-01-15T00:06:14.742Z,0.25
2018-01-15T00:07:17.716Z,0.26
2018-01-15T00:08:21.016Z,0.20
2018-01-15T00:09:24.051Z,0.19
2018-01-15T00:10:27.002Z,0.25
2018-01-15T00:11:29.890Z,0.27
2018-01-15T00:12:32.712Z,0.22
2018-01-15T00:13:35.622Z,0.22
2018-01-15T00:14:38.763Z,0.20
2018-01-15T00:15:41.678Z,0.21
2018-01-15T00:16:44.593Z,0.18
2018-01-15T00:17:47.518Z,0.16
2018-01-15T00:18:50.400Z,0.14
2018-01-15T00:19:53.363Z,0.16
2018-01-15T00:20:56.681Z,0.19
2018-01-15T00:21:59.506Z,0.17
2018-01-15T00:23:02.340Z,0.15
2018-01-15T00:24:05.375Z,0.15
2018-01-15T00:25:08.324Z,0.15
2018-01-15T00:26:11.214Z,0.13
2018-01-15T00:27:14.517Z,0.12
2018-01-15T00:28:17.446Z,0.11
2018-01-15T00:29:20.372Z,0.15
2018-01-15T00:30:23.278Z,0.08
2018-01-15T00:31:26.222Z,0.12
2018-01-15T00:32:29.074Z,0.13
2018-01-15T00:33:32.397Z,0.14
2018-01-15T00:34:35.350Z,0.15
2018-01-15T00:35:38.214Z,0.18
2018-01-15T00:36:41.137Z,0.15
2018-01-15T00:37:44.069Z,0.12
2018-01-15T00:38:47.021Z,0.13
2018-01-15T00:39:50.166Z,0.13
2018-01-15T00:40:53.061Z,0.12
2018-01-15T00:41:55.975Z,0.10
2018-01-15T00:42:58.979Z,0.06
2018-01-15T00:44:01.974Z,0.10
2018-01-15T00:45:04.903Z,0.07
2018-01-15T00:46:08.240Z,0.11
2018-01-15T00:47:11.134Z,0.12
2018-01-15T00:48:14.057Z,0.13
2018-01-15T00:49:16.906Z,0.16
2018-01-15T00:50:19.773Z,0.16
2018-01-15T00:51:22.657Z,0.14
2018-01-15T00:52:25.925Z,0.14
2018-01-15T00:53:28.847Z,0.18
2018-01-15T00:54:31.736Z,0.19
2018-01-15T00:55:34.657Z,0.19
2018-01-15T00:56:37.561Z,0.20
2018-01-15T00:57:40.473Z,0.24
2018-01-15T00:58:43.825Z,0.23
2018-01-15T00:59:46.733Z,0.25
2018-01-15T01:00:49.633Z,0.24
2018-01-15T01:01:52.563Z,0.25
2018-01-15T01:02:55.490Z,0.27
2018-01-15T01:03:58.521Z,0.27
2018-01-15T01:05:01.873Z,0.28
2018-01-15T01:06:04.969Z,0.29
2018-01-15T01:07:08.359Z,0.31
2018-01-15T01:08:11.376Z,0.34
2018-01-15T01:09:14.261Z,0.37
2018-01-15T01:10:17.237Z,0.39
2018-01-15T01:11:20.521Z,0.41
2018-01-15T01:12:23.502Z,0.41
2018-01-15T01:13:26.412Z,0.42
2018-01-15T01:14:29.433Z,0.45
2018-01-15T01:15:32.365Z,0.45
2018-01-15T01:16:35.790Z,0.44
2018-01-15T01:17:39.202Z,0.42
2018-01-15T01:18:42.163Z,0.43
2018-01-15T01:19:45.082Z,0.41
2018-01-15T01:20:48.021Z,0.42
2018-01-15T01:21:50.916Z,0.43
2018-01-15T01:22:54.180Z,0.47
2018-01-15T01:23:57.146Z,0.46
2018-01-15T01:25:00.067Z,0.42
2018-01-15T01:26:02.977Z,0.42
2018-01-15T01:27:05.775Z,0.43
2018-01-15T01:28:08.602Z,0.42
2018-01-15T01:29:11.765Z,0.40
2018-01-15T01:30:14.550Z,0.39
2018-01-15T01:31:17.292Z,0.40
2018-01-15T01:32:20.066Z,0.45
2018-01-15T01:33:22.897Z,0.47
2018-01-15T01:34:25.829Z,0.46
2018-01-15T01:35:30.082Z,0.45
2018-01-15T01:36:32.883Z,0.49
2018-01-15T01:37:35.784Z,0.50
2018-01-15T01:38:38.697Z,0.50
2018-01-15T01:39:41.624Z,0.50
2018-01-15T01:40:44.513Z,0.46
2018-01-15T01:41:47.776Z,0.48
2018-01-15T01:42:50.664Z,0.47
2018-01-15T01:43:53.582Z,0.48
2018-01-15T01:44:56.492Z,0.48
2018-01-15T01:45:59.306Z,0.47
2018-01-15T01:47:02.050Z,0.48
2018-01-15T01:48:05.236Z,0.50
2018-01-15T01:49:07.968Z,0.49
2018-01-15T01:50:10.758Z,0.51
2018-01-15T01:51:13.654Z,0.54
2018-01-15T01:52:16.541Z,0.50
2018-01-15T01:53:19.475Z,0.51
2018-01-15T01:54:22.832Z,0.54
2018-01-15T01:55:25.741Z,0.55
2018-01-15T01:56:28.682Z,0.52
2018-01-15T01:57:31.580Z,0.58
2018-01-15T01:58:34.477Z,0.61
2018-01-15T01:59:37.437Z,0.58
2018-01-15T02:00:40.683Z,0.60
2018-01-15T02:01:43.625Z,0.61
2018-01-15T02:02:46.555Z,0.62
2018-01-15T02:03:49.485Z,0.62
2018-01-15T02:04:52.441Z,0.59
2018-01-15T02:05:55.346Z,0.60
2018-01-15T02:06:59.753Z,0.62
2018-01-15T02:08:02.693Z,0.65
2018-01-15T02:09:05.641Z,0.70
2018-01-15T02:10:08.560Z,0.67
2018-01-15T02:11:11.480Z,0.69
2018-01-15T02:12:14.359Z,0.73
2018-01-15T02:13:17.641Z,0.74
2018-01-15T02:14:20.566Z,0.73
2018-01-15T02:15:23.482Z,0.73
2018-01-15T02:16:26.411Z,0.74
2018-01-15T02:17:29.323Z,0.71
2018-01-15T02:18:32.219Z,0.69
2018-01-15T02:19:35.506Z,0.72
2018-01-15T02:20:38.440Z,0.68
2018-01-15T02:21:41.339Z,0.67
2018-01-15T02:22:44.279Z,0.76
2018-01-15T02:23:47.166Z,0.81
2018-01-15T02:24:50.146Z,0.81
2018-01-15T02:25:53.531Z,0.81
2018-01-15T02:26:56.452Z,0.71
2018-01-15T02:27:59.362Z,0.68
2018-01-15T02:29:02.307Z,0.73
2018-01-15T02:30:22.381Z,0.78
2018-01-15T02:31:25.715Z,0.70
2018-01-15T02:32:28.539Z,0.69
2018-01-15T02:33:31.465Z,0.74
2018-01-15T02:34:34.280Z,0.80
2018-01-15T02:35:37.265Z,0.78
2018-01-15T02:36:40.192Z,0.79
2018-01-15T02:37:43.607Z,0.79
2018-01-15T02:38:46.607Z,0.70
2018-01-15T02:39:49.582Z,0.65
2018-01-15T02:40:52.495Z,0.63
2018-01-15T02:41:55.457Z,0.64
2018-01-15T02:42:58.417Z,0.61
2018-01-15T02:44:01.714Z,0.61
2018-01-15T02:45:04.632Z,0.68
2018-01-15T02:46:07.606Z,0.67
2018-01-15T02:47:10.570Z,0.66
2018-01-15T02:48:13.592Z,0.63
2018-01-15T02:49:16.520Z,0.58
2018-01-15T02:50:19.951Z,0.60
2018-01-15T02:51:22.868Z,0.63
2018-01-15T02:52:25.770Z,0.68
2018-01-15T02:53:28.732Z,0.71
2018-01-15T02:54:31.662Z,0.71
2018-01-15T02:55:34.581Z,0.69
2018-01-15T02:56:37.919Z,0.66
2018-01-15T02:57:40.787Z,0.65
2018-01-15T02:58:43.711Z,0.66
2018-01-15T02:59:46.635Z,0.64
2018-01-15T03:00:49.542Z,0.60
2018-01-15T03:01:52.435Z,0.62
2018-01-15T03:02:55.782Z,0.66
2018-01-15T03:03:58.754Z,0.67
2018-01-15T03:05:01.702Z,0.65
2018-01-15T03:06:04.625Z,0.69
2018-01-15T03:07:07.577Z,0.67
2018-01-15T03:08:10.583Z,0.67
2018-01-15T03:09:13.886Z,0.64
2018-01-15T03:10:16.792Z,0.62
2018-01-15T03:11:19.698Z,0.64
2018-01-15T03:12:22.581Z,0.59
2018-01-15T03:13:25.482Z,0.61
2018-01-15T03:14:28.409Z,0.61
2018-01-15T03:15:31.698Z,0.60
2018-01-15T03:16:34.700Z,0.67
2018-01-15T03:17:37.675Z,0.66
2018-01-15T03:18:40.612Z,0.68
2018-01-15T03:19:43.551Z,0.65
2018-01-15T03:20:46.462Z,0.66
2018-01-15T03:21:50.638Z,0.68
2018-01-15T03:22:53.511Z,0.64
2018-01-15T03:23:56.335Z,0.65
2018-01-15T03:24:59.196Z,0.68
2018-01-15T03:26:02.131Z,0.70
2018-01-15T03:27:05.067Z,0.78
2018-01-15T03:28:08.507Z,0.75
2018-01-15T03:29:11.471Z,0.79
2018-01-15T03:30:14.411Z,0.79
2018-01-15T03:31:17.339Z,0.77
2018-01-15T03:32:20.260Z,0.75
2018-01-15T03:33:23.170Z,0.79
2018-01-15T03:34:26.502Z,0.84
2018-01-15T03:35:29.447Z,0.88
2018-01-15T03:36:32.378Z,0.83
2018-01-15T03:37:35.305Z,0.79
2018-01-15T03:38:38.241Z,0.83
2018-01-15T03:39:41.141Z,0.77
2018-01-15T03:40:44.359Z,0.79
2018-01-15T03:41:47.271Z,0.80
2018-01-15T03:42:50.185Z,0.78
2018-01-15T03:43:53.113Z,0.82
2018-01-15T03:44:56.028Z,0.85
2018-01-15T03:45:58.884Z,0.90
2018-01-15T03:47:02.142Z,0.91
2018-01-15T03:48:04.955Z,0.83
2018-01-15T03:49:07.882Z,0.81
2018-01-15T03:50:10.773Z,0.83
2018-01-15T03:51:13.729Z,0.81
2018-01-15T03:52:16.696Z,0.81
2018-01-15T03:53:20.055Z,0.83
2018-01-15T03:54:22.984Z,0.83
2018-01-15T03:55:25.918Z,0.85
2018-01-15T03:56:28.905Z,0.88
2018-01-15T03:57:31.907Z,0.85
2018-01-15T03:58:34.887Z,0.83
2018-01-15T03:59:38.339Z,0.87
2018-01-15T04:00:41.297Z,0.88
2018-01-15T04:01:44.202Z,0.90
2018-01-15T04:02:47.167Z,0.89
2018-01-15T04:03:50.084Z,0.91
2018-01-15T04:04:53.181Z,0.94
2018-01-15T04:05:56.577Z,0.89
2018-01-15T04:06:59.520Z,0.92
2018-01-15T04:08:02.447Z,0.92
2018-01-15T04:09:05.385Z,0.96
2018-01-15T04:10:08.332Z,0.96
2018-01-15T04:11:11.308Z,0.93
2018-01-15T04:12:14.711Z,0.92
2018-01-15T04:13:17.625Z,0.93
2018-01-15T04:14:20.543Z,0.97
2018-01-15T04:15:23.412Z,1.02
2018-01-15T04:16:26.252Z,1.01
2018-01-15T04:17:29.077Z,1.03
2018-01-15T04:18:32.503Z,1.01
2018-01-15T04:19:35.444Z,0.92
2018-01-15T04:20:38.380Z,0.93
2018-01-15T04:21:41.280Z,0.94
2018-01-15T04:22:44.209Z,0.99
2018-01-15T04:23:47.158Z,1.01
2018-01-15T04:24:50.544Z,1.00
2018-01-15T04:25:53.446Z,1.04
2018-01-15T04:26:56.362Z,1.02
2018-01-15T04:27:59.263Z,1.03
2018-01-15T04:29:02.202Z,1.00
2018-01-15T04:30:05.121Z,1.00
2018-01-15T04:31:08.434Z,1.00
2018-01-15T04:32:11.354Z,1.05
2018-01-15T04:33:14.254Z,1.10
2018-01-15T04:34:17.185Z,1.10
2018-01-15T04:35:20.117Z,1.11
2018-01-15T04:36:23.198Z,1.17
2018-01-15T04:37:26.584Z,1.12
2018-01-15T04:38:29.558Z,1.07
2018-01-15T04:39:32.474Z,1.10
2018-01-15T04:40:35.430Z,1.08
2018-01-15T04:41:38.366Z,1.13
2018-01-15T04:42:41.274Z,1.11
2018-01-15T04:43:44.515Z,1.09
2018-01-15T04:44:47.420Z,1.06
2018-01-15T04:45:50.343Z,1.10
2018-01-15T04:46:53.330Z,1.11
2018-01-15T04:47:56.291Z,1.12
2018-01-15T04:48:59.230Z,1.13
2018-01-15T04:50:02.488Z,1.15
2018-01-15T04:51:05.410Z,1.12
2018-01-15T04:52:08.735Z,1.15
2018-01-15T04:53:11.673Z,1.16
2018-01-15T04:54:14.528Z,1.21
2018-01-15T04:55:17.428Z,1.20
2018-01-15T04:56:20.733Z,1.16
2018-01-15T04:57:23.600Z,1.11
2018-01-15T04:58:26.486Z,1.15
2018-01-15T04:59:29.407Z,1.17
2018-01-15T05:00:32.383Z,1.21
2018-01-15T05:01:35.318Z,1.19
2018-01-15T05:02:38.655Z,1.19
2018-01-15T05:03:41.584Z,1.21
2018-01-15T05:04:44.488Z,1.18
2018-01-15T05:05:47.450Z,1.18
2018-01-15T05:06:50.403Z,1.20
2018-01-15T05:07:53.308Z,1.19
2018-01-15T05:08:56.652Z,1.19
2018-01-15T05:09:59.617Z,1.24
2018-01-15T05:11:02.553Z,1.27
2018-01-15T05:12:05.519Z,1.28
2018-01-15T05:13:08.448Z,1.29
2018-01-15T05:14:11.336Z,1.26
2018-01-15T05:15:14.742Z,1.26
2018-01-15T05:16:17.635Z,1.25
2018-01-15T05:17:20.576Z,1.25
2018-01-15T05:18:23.409Z,1.29
2018-01-15T05:19:26.278Z,1.30
2018-01-15T05:20:29.208Z,1.30
2018-01-15T05:21:32.556Z,1.29
2018-01-15T05:22:35.432Z,1.30
2018-01-15T05:23:38.338Z,1.24
2018-01-15T05:24:41.185Z,1.24
2018-01-15T05:25:44.040Z,1.21
2018-01-15T05:26:46.897Z,1.21
2018-01-15T05:27:50.273Z,1.28
2018-01-15T05:28:53.149Z,1.29
2018-01-15T05:29:55.999Z,1.30
2018-01-15T05:30:58.942Z,1.27
2018-01-15T05:32:01.868Z,1.22
2018-01-15T05:33:04.740Z,1.18
2018-01-15T05:34:07.650Z,1.18
2018-01-15T05:35:10.563Z,1.24
2018-01-15T05:36:13.471Z,1.23
2018-01-15T05:37:16.427Z,1.19
2018-01-15T05:38:19.330Z,1.23
2018-01-15T05:39:22.713Z,1.24
2018-01-15T05:40:25.648Z,1.22
2018-01-15T05:41:28.641Z,1.27
2018-01-15T05:42:31.545Z,1.26
2018-01-15T05:43:34.478Z,1.23
2018-01-15T05:44:37.470Z,1.27
2018-01-15T05:45:40.756Z,1.22
2018-01-15T05:46:43.776Z,1.23
2018-01-15T05:47:46.704Z,1.23
2018-01-15T05:48:49.609Z,1.23
2018-01-15T05:49:52.547Z,1.26
2018-01-15T05:50:55.503Z,1.23
2018-01-15T05:51:58.789Z,1.25
2018-01-15T05:53:01.704Z,1.31
2018-01-15T05:54:04.653Z,1.24
2018-01-15T05:55:07.576Z,1.21
2018-01-15T05:56:10.514Z,1.20
2018-01-15T05:57:13.526Z,1.21
2018-01-15T05:58:16.891Z,1.22
2018-01-15T05:59:19.821Z,1.22
2018-01-15T06:00:22.831Z,1.24
2018-01-15T06:01:25.788Z,1.27
2018-01-15T06:02:28.662Z,1.29
2018-01-15T06:03:31.570Z,1.34
2018-01-15T06:04:34.988Z,1.23
2018-01-15T06:05:37.938Z,1.28
2018-01-15T06:06:40.854Z,1.30
2018-01-15T06:07:44.128Z,1.28
2018-01-15T06:08:47.062Z,1.27
2018-01-15T06:09:50.082Z,1.22
2018-01-15T06:10:53.446Z,1.25
2018-01-15T06:11:56.430Z,1.27
2018-01-15T06:12:59.330Z,1.25
2018-01-15T06:14:02.311Z,1.28
2018-01-15T06:15:05.219Z,1.32
2018-01-15T06:16:08.456Z,1.30
2018-01-15T06:17:11.729Z,1.27
2018-01-15T06:18:14.918Z,1.27
2018-01-15T06:19:17.972Z,1.29
2018-01-15T06:20:20.889Z,1.31
2018-01-15T06:21:23.841Z,1.30
2018-01-15T06:22:27.216Z,1.33
2018-01-15T06:23:30.166Z,1.37
2018-01-15T06:24:33.186Z,1.36
2018-01-15T06:25:36.104Z,1.35
2018-01-15T06:26:39.068Z,1.41
2018-01-15T06:27:42.017Z,1.37
2018-01-15T06:28:45.426Z,1.37
2018-01-15T06:29:49.163Z,1.40
2018-01-15T06:30:52.105Z,1.41
2018-01-15T06:31:55.015Z,1.43
2018-01-15T06:32:57.926Z,1.45
2018-01-15T06:34:00.834Z,1.45
2018-01-15T06:35:04.288Z,1.43
2018-01-15T06:36:07.209Z,1.44
2018-01-15T06:37:10.142Z,1.41
2018-01-15T06:38:13.108Z,1.37
2018-01-15T06:39:16.086Z,1.40
2018-01-15T06:40:19.007Z,1.41
2018-01-15T06:41:22.305Z,1.45
2018-01-15T06:42:25.247Z,1.41
2018-01-15T06:43:28.154Z,1.44
2018-01-15T06:44:31.093Z,1.41
2018-01-15T06:45:34.079Z,1.38
2018-01-15T06:46:37.027Z,1.33
2018-01-15T06:47:40.368Z,1.31
2018-01-15T06:48:44.967Z,1.34
2018-01-15T06:49:48.019Z,1.33
2018-01-15T06:50:50.958Z,1.28
2018-01-15T06:51:53.882Z,1.30
2018-01-15T06:52:56.902Z,1.27
2018-01-15T06:54:00.292Z,1.24
2018-01-15T06:55:03.295Z,1.25
2018-01-15T06:56:06.171Z,1.29
2018-01-15T06:57:09.110Z,1.25
2018-01-15T06:58:12.061Z,1.23
2018-01-15T06:59:15.031Z,1.22
2018-01-15T07:00:18.363Z,1.23
2018-01-15T07:01:21.336Z,1.27
2018-01-15T07:02:24.337Z,1.25
2018-01-15T07:03:27.274Z,1.24
2018-01-15T07:04:30.209Z,1.24
2018-01-15T07:05:33.132Z,1.28
2018-01-15T07:06:36.404Z,1.27
2018-01-15T07:07:39.399Z,1.22
2018-01-15T07:08:42.357Z,1.26
2018-01-15T07:09:45.395Z,1.30
2018-01-15T07:10:48.475Z,1.31
2018-01-15T07:11:51.449Z,1.35
2018-01-15T07:12:54.846Z,1.38
2018-01-15T07:13:57.852Z,1.35
2018-01-15T07:15:00.825Z,1.41
2018-01-15T07:16:03.866Z,1.42
2018-01-15T07:17:06.729Z,1.41
2018-01-15T07:18:09.601Z,1.42
2018-01-15T07:19:13.020Z,1.41
2018-01-15T07:20:16.019Z,1.46
2018-01-15T07:21:18.988Z,1.50
2018-01-15T07:22:22.048Z,1.54
2018-01-15T07:23:25.107Z,1.56
2018-01-15T07:24:28.025Z,1.57
2018-01-15T07:25:31.254Z,1.58
2018-01-15T07:26:34.257Z,1.61
2018-01-15T07:27:37.167Z,1.58
2018-01-15T07:28:40.187Z,1.53
2018-01-15T07:29:43.098Z,1.57
2018-01-15T07:30:46.085Z,1.52
2018-01-15T07:31:49.418Z,1.49
2018-01-15T07:32:52.335Z,1.46
2018-01-15T07:33:55.625Z,1.48
2018-01-15T07:34:58.712Z,1.48
2018-01-15T07:36:01.692Z,1.52
2018-01-15T07:37:05.015Z,1.51
2018-01-15T07:39:19.716Z,1.53
2018-01-15T07:40:22.664Z,1.60
2018-01-15T07:41:25.598Z,1.62
2018-01-15T07:42:28.512Z,1.66
2018-01-15T07:44:47.279Z,1.69
2018-01-15T07:45:50.427Z,1.68
2018-01-15T07:46:53.406Z,1.69
2018-01-15T07:47:56.377Z,1.70
2018-01-15T07:48:59.302Z,1.77
2018-01-15T07:50:02.258Z,1.77
2018-01-15T07:51:05.687Z,1.77
2018-01-15T07:52:08.660Z,1.79
2018-01-15T07:53:11.626Z,1.85
2018-01-15T07:54:14.568Z,1.86
2018-01-15T07:55:18.295Z,1.87
2018-01-15T07:56:21.248Z,1.86
2018-01-15T07:57:24.555Z,1.92
2018-01-15T07:58:27.472Z,1.91
2018-01-15T07:59:30.399Z,1.91
2018-01-15T08:00:33.376Z,1.88
2018-01-15T08:01:36.340Z,1.87
2018-01-15T08:02:39.300Z,1.84
2018-01-15T08:03:42.551Z,1.88
2018-01-15T08:04:45.573Z,1.96
2018-01-15T08:05:48.585Z,1.96
2018-01-15T08:06:51.604Z,1.96
2018-01-15T08:07:54.580Z,1.92
2018-01-15T08:08:57.519Z,1.93
2018-01-15T08:10:00.848Z,1.90
2018-01-15T08:11:04.426Z,1.91
2018-01-15T08:12:07.330Z,1.94
2018-01-15T08:13:10.289Z,1.91
2018-01-15T08:14:13.215Z,1.87
2018-01-15T08:15:16.314Z,1.81
2018-01-15T08:16:19.729Z,1.83
2018-01-15T08:17:22.651Z,1.87
2018-01-15T08:18:26.415Z,1.84
2018-01-15T08:19:29.252Z,1.85
2018-01-15T08:20:32.232Z,1.85
2018-01-15T08:21:35.645Z,1.83
2018-01-15T08:22:39.059Z,1.88
2018-01-15T08:23:42.112Z,1.89
2018-01-15T08:25:47.629Z,1.90
2018-01-15T08:26:50.768Z,1.89
2018-01-15T08:27:53.628Z,1.90
2018-01-15T08:28:56.787Z,1.92
2018-01-15T08:29:59.733Z,1.97
2018-01-15T08:31:02.590Z,1.98
2018-01-15T08:32:05.488Z,1.98
2018-01-15T08:33:08.406Z,2.00
2018-01-15T08:34:11.503Z,2.00
2018-01-15T08:35:14.908Z,2.02
2018-01-15T08:36:17.915Z,2.03
2018-01-15T08:37:20.865Z,2.00
2018-01-15T08:38:23.835Z,2.03
2018-01-15T08:39:26.783Z,1.98
2018-01-15T08:40:29.731Z,1.95
2018-01-15T08:41:33.017Z,2.01
2018-01-15T08:42:36.336Z,2.02
2018-01-15T08:43:39.271Z,2.03
2018-01-15T08:44:42.203Z,1.99
2018-01-15T08:45:45.223Z,2.00
2018-01-15T08:46:48.201Z,2.00
2018-01-15T08:47:51.674Z,1.99
2018-01-15T08:48:54.579Z,2.00
2018-01-15T08:49:57.518Z,2.05
2018-01-15T08:51:00.478Z,2.04
2018-01-15T08:52:03.414Z,2.08
2018-01-15T08:53:06.324Z,2.09
2018-01-15T08:54:09.703Z,2.11
2018-01-15T08:55:13.044Z,2.14
2018-01-15T08:56:16.538Z,2.14
2018-01-15T08:57:19.470Z,2.07
2018-01-15T08:58:23.482Z,2.10
2018-01-15T08:59:26.971Z,2.10
2018-01-15T09:00:30.201Z,2.11
2018-01-15T09:01:33.104Z,2.15
2018-01-15T09:02:36.031Z,2.15
2018-01-15T09:03:38.978Z,2.17
2018-01-15T09:04:41.940Z,2.19
2018-01-15T09:05:44.908Z,2.21
2018-01-15T09:06:48.207Z,2.24
2018-01-15T09:07:51.152Z,2.26
2018-01-15T09:08:54.122Z,2.24
2018-01-15T09:09:57.055Z,2.27
2018-01-15T09:10:59.933Z,2.30
2018-01-15T09:12:02.824Z,2.26
2018-01-15T09:13:06.306Z,2.25
2018-01-15T09:14:09.226Z,2.31
2018-01-15T09:15:12.156Z,2.34
2018-01-15T09:16:15.075Z,2.35
2018-01-15T09:17:18.070Z,2.39
2018-01-15T09:18:21.082Z,2.45
2018-01-15T09:19:24.324Z,2.48
2018-01-15T09:20:27.235Z,2.45
2018-01-15T09:21:30.272Z,2.43
2018-01-15T09:22:33.303Z,2.49
2018-01-15T09:23:36.231Z,2.48
2018-01-15T09:24:39.218Z,2.42
2018-01-15T09:25:42.966Z,2.43
2018-01-15T09:26:45.968Z,2.43
2018-01-15T09:27:48.983Z,2.47
2018-01-15T09:28:52.591Z,2.48
2018-01-15T09:29:55.766Z,2.49
2018-01-15T09:30:58.712Z,2.52
2018-01-15T09:32:02.205Z,2.53
2018-01-15T09:33:05.119Z,2.56
2018-01-15T09:34:09.164Z,2.54
2018-01-15T09:35:12.096Z,2.56
2018-01-15T09:36:15.101Z,2.57
2018-01-15T09:37:18.039Z,2.60
2018-01-15T09:38:21.460Z,2.56
2018-01-15T09:39:24.428Z,2.57
2018-01-15T09:40:27.430Z,2.63
2018-01-15T09:41:30.366Z,2.61
2018-01-15T09:42:33.375Z,2.62
2018-01-15T09:43:36.295Z,2.61
2018-01-15T09:44:39.798Z,2.65
2018-01-15T09:45:42.774Z,2.67
2018-01-15T09:46:46.061Z,2.70
2018-01-15T09:47:49.333Z,2.67
2018-01-15T09:48:52.261Z,2.73
2018-01-15T09:49:55.220Z,2.65
2018-01-15T09:50:58.639Z,2.64
2018-01-15T09:52:01.572Z,2.65
2018-01-15T09:53:04.621Z,2.64
2018-01-15T09:54:07.565Z,2.66
2018-01-15T09:55:11.507Z,2.69
2018-01-15T09:56:14.524Z,2.66
2018-01-15T09:57:17.908Z,2.63
2018-01-15T09:58:20.954Z,2.65
2018-01-15T09:59:23.889Z,2.60
2018-01-15T10:00:26.867Z,2.60
2018-01-15T10:01:29.795Z,2.58
2018-01-15T10:02:32.763Z,2.59
2018-01-15T10:03:36.147Z,2.61
2018-01-15T10:04:39.074Z,2.60
2018-01-15T10:05:42.089Z,2.63
2018-01-15T10:06:45.025Z,2.60
2018-01-15T10:07:48.077Z,2.63
2018-01-15T10:08:51.009Z,2.64
2018-01-15T10:09:54.394Z,2.68
2018-01-15T10:10:57.346Z,2.60
2018-01-15T10:12:00.443Z,2.57
2018-01-15T10:13:03.457Z,2.60
2018-01-15T10:14:06.407Z,2.63
2018-01-15T10:15:09.371Z,2.58
2018-01-15T10:16:12.730Z,2.67
2018-01-15T10:17:15.760Z,2.73
2018-01-15T10:18:18.736Z,2.70
2018-01-15T10:19:22.706Z,2.68
2018-01-15T10:20:25.663Z,2.72
2018-01-15T10:21:28.580Z,2.72
2018-01-15T10:22:31.970Z,2.74
2018-01-15T10:23:34.922Z,2.77
2018-01-15T10:24:37.922Z,2.76
2018-01-15T10:25:40.817Z,2.78
2018-01-15T10:26:43.738Z,2.78
2018-01-15T10:27:46.710Z,2.78
2018-01-15T10:28:50.026Z,2.82
2018-01-15T10:29:52.954Z,2.85
2018-01-15T10:30:55.919Z,2.85
2018-01-15T10:31:58.853Z,2.82
2018-01-15T10:33:01.759Z,2.85
2018-01-15T10:34:04.694Z,2.92
2018-01-15T10:35:07.919Z,2.97
2018-01-15T10:36:10.820Z,2.93
2018-01-15T10:37:13.759Z,2.85
2018-01-15T10:38:16.698Z,2.87
2018-01-15T10:39:19.639Z,2.91
2018-01-15T10:40:22.560Z,2.94
2018-01-15T10:41:26.041Z,2.97
2018-01-15T10:42:29.050Z,2.99
2018-01-15T10:43:31.924Z,3.10
2018-01-15T10:44:34.871Z,3.14
2018-01-15T10:45:37.830Z,3.09
2018-01-15T10:46:40.861Z,3.08
2018-01-15T10:47:43.869Z,3.10
2018-01-15T10:48:46.817Z,3.12
2018-01-15T10:49:49.786Z,3.13
2018-01-15T10:50:52.734Z,3.15
2018-01-15T10:51:55.785Z,3.15
2018-01-15T10:52:58.765Z,3.10
2018-01-15T10:54:02.166Z,3.08
2018-01-15T10:55:05.088Z,3.14
2018-01-15T10:56:08.031Z,3.18
2018-01-15T10:57:10.974Z,3.18
2018-01-15T10:58:13.963Z,3.15
2018-01-15T10:59:16.894Z,3.15
2018-01-15T11:00:24.175Z,3.14
2018-01-15T11:01:28.132Z,3.13
2018-01-15T11:02:31.090Z,3.13
2018-01-15T11:03:34.048Z,3.15
2018-01-15T11:04:37.010Z,3.21
2018-01-15T11:05:40.031Z,3.19
2018-01-15T11:06:43.479Z,3.22
2018-01-15T11:07:46.518Z,3.26
2018-01-15T11:08:49.502Z,3.20
2018-01-15T11:09:52.475Z,3.22
2018-01-15T11:10:55.457Z,3.24
2018-01-15T11:11:58.443Z,3.32
2018-01-15T11:13:01.703Z,3.27
2018-01-15T11:14:04.674Z,3.21
2018-01-15T11:15:07.731Z,3.22
2018-01-15T11:16:10.804Z,3.20
2018-01-15T11:17:13.757Z,3.21
2018-01-15T11:18:16.765Z,3.16
2018-01-15T11:19:20.255Z,3.14
2018-01-15T11:20:23.204Z,3.14
2018-01-15T11:21:26.154Z,3.17
2018-01-15T11:22:29.161Z,3.17
2018-01-15T11:23:32.126Z,3.18
2018-01-15T11:24:35.106Z,3.16
2018-01-15T11:25:38.492Z,3.17
2018-01-15T11:26:41.505Z,3.13
2018-01-15T11:27:44.403Z,3.12
2018-01-15T11:28:47.348Z,3.09
2018-01-15T11:29:50.311Z,3.08
2018-01-15T11:30:53.300Z,3.09
2018-01-15T11:31:56.725Z,3.08
2018-01-15T11:32:59.683Z,3.08
2018-01-15T11:34:02.667Z,3.12
2018-01-15T11:35:05.598Z,3.11
2018-01-15T11:36:08.527Z,3.09
2018-01-15T11:37:11.516Z,3.12
2018-01-15T11:38:14.782Z,3.10
2018-01-15T11:39:17.787Z,3.15
2018-01-15T11:40:20.745Z,3.16
2018-01-15T11:41:23.716Z,3.11
2018-01-15T11:43:40.647Z,3.11
2018-01-15T11:44:43.712Z,3.13
2018-01-15T11:45:46.709Z,3.11
2018-01-15T11:46:49.698Z,3.18
2018-01-15T11:47:52.614Z,3.18
2018-01-15T11:48:55.548Z,3.16
2018-01-15T11:49:58.816Z,3.11
2018-01-15T11:51:01.777Z,3.09
2018-01-15T11:52:04.722Z,3.15
2018-01-15T11:53:07.696Z,3.18
2018-01-15T11:54:10.665Z,3.17
2018-01-15T11:55:13.630Z,3.14
2018-01-15T11:56:16.925Z,3.15
2018-01-15T11:57:19.908Z,3.17
2018-01-15T11:58:23.958Z,3.18
2018-01-15T11:59:26.895Z,3.18
2018-01-15T12:00:29.867Z,3.18
2018-01-15T12:01:32.867Z,3.22
2018-01-15T12:02:36.222Z,3.26
2018-01-15T12:03:39.229Z,3.27
2018-01-15T12:04:42.191Z,3.29
2018-01-15T12:07:03.478Z,3.35
2018-01-15T12:08:06.976Z,3.30
2018-01-15T12:09:10.306Z,3.28
2018-01-15T12:10:13.158Z,3.29
2018-01-15T12:12:30.446Z,3.35
2018-01-15T12:13:33.356Z,3.35
2018-01-15T12:14:37.007Z,3.38
2018-01-15T12:15:39.940Z,3.41
2018-01-15T12:16:42.912Z,3.46
2018-01-15T12:17:45.800Z,3.48
2018-01-15T12:18:49.162Z,3.48
2018-01-15T12:21:06.337Z,3.61
2018-01-15T12:22:09.375Z,3.65
2018-01-15T12:23:12.482Z,3.61
2018-01-15T12:24:16.054Z,3.59
2018-01-15T12:25:18.957Z,3.63
2018-01-15T12:26:21.997Z,3.66
2018-01-15T12:27:25.463Z,3.69
2018-01-15T12:28:28.391Z,3.71
2018-01-15T12:29:31.369Z,3.70
2018-01-15T12:30:34.316Z,3.71
2018-01-15T12:31:37.597Z,3.71
2018-01-15T12:32:40.586Z,3.70
2018-01-15T12:33:43.898Z,3.64
2018-01-15T12:34:46.855Z,3.67
2018-01-15T12:35:49.998Z,3.66
2018-01-15T12:36:53.024Z,3.68
2018-01-15T12:37:56.023Z,3.64
2018-01-15T12:38:59.043Z,3.63
2018-01-15T12:40:02.391Z,3.64
2018-01-15T12:41:05.347Z,3.67
2018-01-15T12:42:08.328Z,3.61
2018-01-15T12:43:11.260Z,3.57
2018-01-15T12:44:14.226Z,3.59
2018-01-15T12:45:17.153Z,3.65
2018-01-15T12:46:20.408Z,3.59
2018-01-15T12:47:23.343Z,3.51
2018-01-15T12:48:26.317Z,3.53
2018-01-15T12:49:29.246Z,3.54
2018-01-15T12:50:32.175Z,3.58
2018-01-15T12:51:35.133Z,3.58
2018-01-15T12:52:38.507Z,3.50
2018-01-15T12:53:41.475Z,3.48
2018-01-15T12:54:44.492Z,3.51
2018-01-15T12:55:47.479Z,3.54
2018-01-15T12:56:50.434Z,3.54
2018-01-15T12:57:53.365Z,3.53
2018-01-15T12:58:57.069Z,3.53
2018-01-15T13:00:00.015Z,3.56
2018-01-15T13:01:02.958Z,3.57
2018-01-15T13:02:05.918Z,3.56
2018-01-15T13:03:08.851Z,3.47
2018-01-15T13:04:11.797Z,3.46
2018-01-15T13:05:15.206Z,3.42
2018-01-15T13:06:18.177Z,3.46
2018-01-15T13:07:21.131Z,3.48
2018-01-15T13:08:24.037Z,3.52
2018-01-15T13:09:27.023Z,3.50
2018-01-15T13:10:30.021Z,3.51
2018-01-15T13:11:33.334Z,3.47
2018-01-15T13:12:36.345Z,3.46
2018-01-15T13:13:39.243Z,3.47
2018-01-15T13:14:42.144Z,3.45
2018-01-15T13:15:45.486Z,3.39
2018-01-15T13:16:48.505Z,3.41
2018-01-15T13:17:51.941Z,3.38
2018-01-15T13:18:54.891Z,3.41
2018-01-15T13:19:57.858Z,3.36
2018-01-15T13:21:00.792Z,3.37
2018-01-15T13:22:03.730Z,3.30
2018-01-15T13:23:06.688Z,3.32
2018-01-15T13:24:09.921Z,3.29
2018-01-15T13:25:12.900Z,3.21
2018-01-15T13:26:15.820Z,3.25
2018-01-15T13:27:18.735Z,3.23
2018-01-15T13:28:21.642Z,3.18
2018-01-15T13:29:24.573Z,3.17
2018-01-15T13:30:27.778Z,3.21
2018-01-15T13:31:30.758Z,3.26
2018-01-15T13:32:33.683Z,3.17
2018-01-15T13:33:36.676Z,3.21
2018-01-15T13:34:39.649Z,3.16
2018-01-15T13:35:42.773Z,3.19
2018-01-15T13:36:45.722Z,3.15
2018-01-15T13:37:48.727Z,3.11
2018-01-15T13:38:51.726Z,3.13
2018-01-15T13:39:54.702Z,3.07
2018-01-15T13:40:57.576Z,3.10
2018-01-15T13:42:00.813Z,3.07
2018-01-15T13:43:03.739Z,3.04
2018-01-15T13:44:06.777Z,3.02
2018-01-15T13:45:09.737Z,3.05
2018-01-15T13:46:12.732Z,3.07
2018-01-15T13:47:15.722Z,3.07
2018-01-15T13:48:19.822Z,3.07
2018-01-15T13:49:22.774Z,3.10
2018-01-15T13:50:25.772Z,3.06
2018-01-15T13:51:28.691Z,3.08
2018-01-15T13:52:31.673Z,3.07
2018-01-15T13:53:34.636Z,3.00
2018-01-15T13:54:38.607Z,2.99
2018-01-15T13:55:41.946Z,3.01
2018-01-15T13:56:44.912Z,3.02
2018-01-15T13:57:47.943Z,3.00
2018-01-15T13:58:51.028Z,2.97
2018-01-15T13:59:53.969Z,2.92
2018-01-15T14:00:57.357Z,2.91
2018-01-15T14:02:00.618Z,2.96
2018-01-15T14:03:03.806Z,3.01
2018-01-15T14:04:06.893Z,3.03
2018-01-15T14:05:09.928Z,3.06
2018-01-15T14:06:13.000Z,3.09
2018-01-15T14:07:16.393Z,3.07
2018-01-15T14:08:19.358Z,3.06